sensor_id;sensor_type;location;lat;lon;timestamp;pressure;altitude;pressure_sealevel;temperature;humidity
22662;BME280;11497;52.222;21.246;2023-01-27T00:01:08;100808.50;;;0.77;76.51
22662;BME280;11497;52.222;21.246;2023-01-27T00:03:36;100799.59;;;0.53;75.95
22662;BME280;11497;52.222;21.246;2023-01-27T00:06:04;100810.75;;;0.54;75.86
22662;BME280;11497;52.222;21.246;2023-01-27T00:08:33;100807.53;;;0.69;75.82
22662;BME280;11497;52.222;21.246;2023-01-27T00:11:01;100814.19;;;0.53;76.02
22662;BME280;11497;52.222;21.246;2023-01-27T00:13:47;100813.28;;;0.49;76.51
22662;BME280;11497;52.222;21.246;2023-01-27T00:16:15;100819.25;;;0.47;76.89
22662;BME280;11497;52.222;21.246;2023-01-27T00:18:43;100822.94;;;0.64;76.56
22662;BME280;11497;52.222;21.246;2023-01-27T00:21:11;100814.94;;;0.43;76.73
22662;BME280;11497;52.222;21.246;2023-01-27T00:23:58;100819.13;;;0.38;77.10
22662;BME280;11497;52.222;21.246;2023-01-27T00:26:44;100820.88;;;0.39;77.49
22662;BME280;11497;52.222;21.246;2023-01-27T00:29:12;100816.91;;;0.62;77.39
22662;BME280;11497;52.222;21.246;2023-01-27T00:31:40;100818.03;;;0.82;76.71
22662;BME280;11497;52.222;21.246;2023-01-27T00:34:27;100821.47;;;0.83;76.10
22662;BME280;11497;52.222;21.246;2023-01-27T00:36:54;100829.94;;;0.74;75.95
22662;BME280;11497;52.222;21.246;2023-01-27T00:39:22;100833.59;;;0.91;76.18
22662;BME280;11497;52.222;21.246;2023-01-27T00:41:50;100829.94;;;0.74;76.05
22662;BME280;11497;52.222;21.246;2023-01-27T00:44:18;100833.56;;;0.88;76.29
22662;BME280;11497;52.222;21.246;2023-01-27T00:46:46;100833.56;;;0.88;75.92
22662;BME280;11497;52.222;21.246;2023-01-27T00:49:14;100830.13;;;0.86;75.98
22662;BME280;11497;52.222;21.246;2023-01-27T00:51:42;100830.84;;;0.76;76.24
22662;BME280;11497;52.222;21.246;2023-01-27T00:54:10;100834.16;;;0.69;76.62
22662;BME280;11497;52.222;21.246;2023-01-27T00:56:38;100837.53;;;0.65;77.14
22662;BME280;11497;52.222;21.246;2023-01-27T00:59:06;100840.91;;;0.59;77.57
22662;BME280;11497;52.222;21.246;2023-01-27T01:01:34;100828.03;;;0.61;77.78
22662;BME280;11497;52.222;21.246;2023-01-27T01:04:02;100826.56;;;0.77;77.87
22662;BME280;11497;52.222;21.246;2023-01-27T01:06:30;100829.03;;;0.69;77.59
22662;BME280;11497;52.222;21.246;2023-01-27T01:08:58;100831.47;;;0.60;78.25
22662;BME280;11497;52.222;21.246;2023-01-27T01:11:26;100840.72;;;0.49;78.42
22662;BME280;11497;52.222;21.246;2023-01-27T01:13:54;100827.81;;;0.46;78.32
22662;BME280;11497;52.222;21.246;2023-01-27T01:16:24;100826.41;;;0.66;78.02
22662;BME280;11497;52.222;21.246;2023-01-27T01:18:52;100831.31;;;0.51;78.25
22662;BME280;11497;52.222;21.246;2023-01-27T01:21:20;100821.25;;;0.66;78.21
22662;BME280;11497;52.222;21.246;2023-01-27T01:23:49;100817.91;;;0.73;78.56
22662;BME280;11497;52.222;21.246;2023-01-27T01:26:17;100824.75;;;0.71;78.66
22662;BME280;11497;52.222;21.246;2023-01-27T01:28:45;100828.94;;;0.64;78.45
22662;BME280;11497;52.222;21.246;2023-01-27T01:31:18;100823.09;;;0.76;78.73
22662;BME280;11497;52.222;21.246;2023-01-27T01:33:47;100814.28;;;0.59;78.76
22662;BME280;11497;52.222;21.246;2023-01-27T01:36:17;100820.47;;;0.72;78.95
22662;BME280;11497;52.222;21.246;2023-01-27T01:38:46;100829.91;;;0.71;79.08
22662;BME280;11497;52.222;21.246;2023-01-27T01:41:19;100821.19;;;0.63;79.10
22662;BME280;11497;52.222;21.246;2023-01-27T01:43:48;100817.69;;;0.58;79.32
22662;BME280;11497;52.222;21.246;2023-01-27T01:46:17;100821.97;;;0.57;79.75
22662;BME280;11497;52.222;21.246;2023-01-27T01:51:27;100830.44;;;0.49;80.01
22662;BME280;11497;52.222;21.246;2023-01-27T01:54:35;100829.50;;;0.44;80.50
22662;BME280;11497;52.222;21.246;2023-01-27T01:57:29;100830.63;;;0.62;80.33
22662;BME280;11497;52.222;21.246;2023-01-27T02:00:01;100819.41;;;0.59;80.08
22662;BME280;11497;52.222;21.246;2023-01-27T02:02:40;100825.28;;;0.49;80.04
22662;BME280;11497;52.222;21.246;2023-01-27T02:05:10;100826.91;;;0.41;80.67
22662;BME280;11497;52.222;21.246;2023-01-27T02:07:58;100814.34;;;0.65;80.92
22662;BME280;11497;52.222;21.246;2023-01-27T02:10:28;100812.34;;;0.43;80.98
22662;BME280;11497;52.222;21.246;2023-01-27T02:12:56;100816.63;;;0.42;81.08
22662;BME280;11497;52.222;21.246;2023-01-27T02:15:24;100817.44;;;0.40;81.16
22662;BME280;11497;52.222;21.246;2023-01-27T02:17:52;100820.94;;;0.45;81.21
22662;BME280;11497;52.222;21.246;2023-01-27T02:20:48;100818.38;;;0.43;81.36
22662;BME280;11497;52.222;21.246;2023-01-27T02:26:07;100814.22;;;0.56;80.98
22662;BME280;11497;52.222;21.246;2023-01-27T02:28:36;100823.56;;;0.48;81.26
22662;BME280;11497;52.222;21.246;2023-01-27T02:31:04;100831.22;;;0.42;81.29
22662;BME280;11497;52.222;21.246;2023-01-27T02:33:33;100825.22;;;0.44;81.57
22662;BME280;11497;52.222;21.246;2023-01-27T02:36:08;100827.09;;;0.54;81.36
22662;BME280;11497;52.222;21.246;2023-01-27T02:38:49;100828.75;;;0.51;81.39
22662;BME280;11497;52.222;21.246;2023-01-27T02:43:54;100825.97;;;0.36;81.93
22662;BME280;11497;52.222;21.246;2023-01-27T02:46:22;100824.41;;;0.47;82.07
22662;BME280;11497;52.222;21.246;2023-01-27T02:48:50;100829.44;;;0.38;82.31
22662;BME280;11497;52.222;21.246;2023-01-27T02:51:19;100825.16;;;0.38;82.68
22662;BME280;11497;52.222;21.246;2023-01-27T02:53:47;100829.53;;;0.47;82.79
22662;BME280;11497;52.222;21.246;2023-01-27T02:56:16;100822.84;;;0.58;82.22
22662;BME280;11497;52.222;21.246;2023-01-27T02:58:44;100830.69;;;0.65;81.88
22662;BME280;11497;52.222;21.246;2023-01-27T03:01:16;100830.56;;;0.56;81.88
22662;BME280;11497;52.222;21.246;2023-01-27T03:03:44;100825.56;;;0.67;82.20
22662;BME280;11497;52.222;21.246;2023-01-27T03:06:19;100828.13;;;0.67;81.98
22662;BME280;11497;52.222;21.246;2023-01-27T03:08:47;100826.59;;;0.80;81.57
22662;BME280;11497;52.222;21.246;2023-01-27T03:11:16;100825.53;;;0.65;81.42
22662;BME280;11497;52.222;21.246;2023-01-27T03:14:07;100836.72;;;0.68;81.47
22662;BME280;11497;52.222;21.246;2023-01-27T03:16:35;100834.75;;;0.50;81.72
22662;BME280;11497;52.222;21.246;2023-01-27T03:19:21;100830.38;;;0.43;82.03
22662;BME280;11497;52.222;21.246;2023-01-27T03:21:49;100836.28;;;0.36;82.58
22662;BME280;11497;52.222;21.246;2023-01-27T03:24:21;100832.72;;;0.27;82.50
22662;BME280;11497;52.222;21.246;2023-01-27T03:26:54;100835.34;;;0.30;82.70
22662;BME280;11497;52.222;21.246;2023-01-27T03:29:31;100838.97;;;0.46;82.64
22662;BME280;11497;52.222;21.246;2023-01-27T03:32:32;100832.84;;;0.37;82.71
22662;BME280;11497;52.222;21.246;2023-01-27T03:35:34;100833.59;;;0.29;82.86
22662;BME280;11497;52.222;21.246;2023-01-27T03:38:09;100828.00;;;0.58;82.95
22662;BME280;11497;52.222;21.246;2023-01-27T03:40:57;100829.59;;;0.50;82.72
22662;BME280;11497;52.222;21.246;2023-01-27T03:43:44;100833.75;;;0.39;83.01
22662;BME280;11497;52.222;21.246;2023-01-27T03:46:30;100832.81;;;0.33;83.44
22662;BME280;11497;52.222;21.246;2023-01-27T03:48:59;100840.56;;;0.35;83.37
22662;BME280;11497;52.222;21.246;2023-01-27T03:51:27;100833.00;;;0.49;83.45
22662;BME280;11497;52.222;21.246;2023-01-27T03:53:55;100837.88;;;0.29;83.68
22662;BME280;11497;52.222;21.246;2023-01-27T03:56:23;100833.22;;;0.62;83.29
22662;BME280;11497;52.222;21.246;2023-01-27T03:58:51;100835.53;;;0.46;83.14
22662;BME280;11497;52.222;21.246;2023-01-27T04:01:21;100841.41;;;0.34;83.32
22662;BME280;11497;52.222;21.246;2023-01-27T04:03:50;100845.44;;;0.20;83.69
22662;BME280;11497;52.222;21.246;2023-01-27T04:06:40;100849.69;;;0.16;84.43
22662;BME280;11497;52.222;21.246;2023-01-27T04:09:40;100846.38;;;0.23;84.75
22662;BME280;11497;52.222;21.246;2023-01-27T04:12:09;100842.91;;;0.21;85.37
22662;BME280;11497;52.222;21.246;2023-01-27T04:14:38;100842.25;;;0.33;84.99
22662;BME280;11497;52.222;21.246;2023-01-27T04:17:16;100850.25;;;0.54;84.69
22662;BME280;11497;52.222;21.246;2023-01-27T04:19:45;100853.50;;;0.40;84.30
22662;BME280;11497;52.222;21.246;2023-01-27T04:22:14;100855.28;;;0.47;84.27
22662;BME280;11497;52.222;21.246;2023-01-27T04:24:43;100860.50;;;0.50;84.30
22662;BME280;11497;52.222;21.246;2023-01-27T04:27:13;100869.84;;;0.45;84.33
22662;BME280;11497;52.222;21.246;2023-01-27T04:29:42;100867.53;;;0.60;84.31
22662;BME280;11497;52.222;21.246;2023-01-27T04:32:12;100857.94;;;0.51;84.31
22662;BME280;11497;52.222;21.246;2023-01-27T04:34:40;100868.91;;;0.37;84.56
22662;BME280;11497;52.222;21.246;2023-01-27T04:37:09;100857.09;;;0.52;84.58
22662;BME280;11497;52.222;21.246;2023-01-27T04:39:37;100865.66;;;0.50;84.37
22662;BME280;11497;52.222;21.246;2023-01-27T04:42:05;100858.66;;;0.40;84.70
22662;BME280;11497;52.222;21.246;2023-01-27T04:44:33;100857.03;;;0.48;84.52
22662;BME280;11497;52.222;21.246;2023-01-27T04:47:00;100868.28;;;0.54;84.60
22662;BME280;11497;52.222;21.246;2023-01-27T04:49:28;100859.44;;;0.36;84.29
22662;BME280;11497;52.222;21.246;2023-01-27T04:51:56;100855.88;;;0.27;84.62
22662;BME280;11497;52.222;21.246;2023-01-27T04:54:24;100865.91;;;0.12;84.81
22662;BME280;11497;52.222;21.246;2023-01-27T04:56:57;100872.22;;;0.29;85.16
22662;BME280;11497;52.222;21.246;2023-01-27T04:59:26;100871.19;;;0.20;85.28
22662;BME280;11497;52.222;21.246;2023-01-27T05:01:54;100865.88;;;0.11;85.56
22662;BME280;11497;52.222;21.246;2023-01-27T05:04:22;100869.06;;;-0.06;85.86
22662;BME280;11497;52.222;21.246;2023-01-27T05:06:53;100871.38;;;-0.19;85.93
22662;BME280;11497;52.222;21.246;2023-01-27T05:09:21;100868.63;;;-0.30;86.64
22662;BME280;11497;52.222;21.246;2023-01-27T05:11:49;100871.88;;;-0.39;87.35
22662;BME280;11497;52.222;21.246;2023-01-27T05:14:17;100873.84;;;-0.25;87.69
22662;BME280;11497;52.222;21.246;2023-01-27T05:16:45;100874.59;;;-0.31;87.55
22662;BME280;11497;52.222;21.246;2023-01-27T05:19:13;100875.06;;;-0.53;88.01
22662;BME280;11497;52.222;21.246;2023-01-27T05:21:40;100879.19;;;-0.60;88.26
22662;BME280;11497;52.222;21.246;2023-01-27T05:24:10;100881.81;;;-0.58;88.88
22662;BME280;11497;52.222;21.246;2023-01-27T05:26:38;100889.41;;;-0.63;89.06
22662;BME280;11497;52.222;21.246;2023-01-27T05:29:08;100895.22;;;-0.73;89.47
22662;BME280;11497;52.222;21.246;2023-01-27T05:31:36;100891.94;;;-0.66;89.46
22662;BME280;11497;52.222;21.246;2023-01-27T05:34:05;100893.72;;;-0.62;90.09
22662;BME280;11497;52.222;21.246;2023-01-27T05:36:33;100896.41;;;-0.56;90.21
22662;BME280;11497;52.222;21.246;2023-01-27T05:39:01;100904.97;;;-0.57;89.93
22662;BME280;11497;52.222;21.246;2023-01-27T05:41:29;100910.13;;;-0.57;90.64
22662;BME280;11497;52.222;21.246;2023-01-27T05:43:58;100906.09;;;-0.44;90.46
22662;BME280;11497;52.222;21.246;2023-01-27T05:46:28;100902.63;;;-0.46;90.67
22662;BME280;11497;52.222;21.246;2023-01-27T05:48:59;100898.50;;;-0.37;90.86
22662;BME280;11497;52.222;21.246;2023-01-27T05:51:33;100908.50;;;-0.52;90.50
22662;BME280;11497;52.222;21.246;2023-01-27T05:54:02;100906.66;;;-0.59;91.41
22662;BME280;11497;52.222;21.246;2023-01-27T05:56:30;100905.88;;;-0.55;91.25
22662;BME280;11497;52.222;21.246;2023-01-27T05:58:59;100915.31;;;-0.54;91.65
22662;BME280;11497;52.222;21.246;2023-01-27T06:01:29;100913.53;;;-0.58;91.51
22662;BME280;11497;52.222;21.246;2023-01-27T06:03:58;100910.19;;;-0.54;91.93
22662;BME280;11497;52.222;21.246;2023-01-27T06:06:28;100914.31;;;-0.60;91.84
22662;BME280;11497;52.222;21.246;2023-01-27T06:08:57;100917.19;;;-0.47;92.21
22662;BME280;11497;52.222;21.246;2023-01-27T06:11:25;100919.97;;;-0.35;92.21
22662;BME280;11497;52.222;21.246;2023-01-27T06:13:53;100934.56;;;-0.34;92.21
22662;BME280;11497;52.222;21.246;2023-01-27T06:16:22;100934.50;;;-0.37;92.27
22662;BME280;11497;52.222;21.246;2023-01-27T06:18:50;100936.16;;;-0.39;91.99
22662;BME280;11497;52.222;21.246;2023-01-27T06:21:18;100940.06;;;-0.15;92.18
22662;BME280;11497;52.222;21.246;2023-01-27T06:23:48;100943.72;;;-0.04;91.69
22662;BME280;11497;52.222;21.246;2023-01-27T06:26:18;100943.53;;;-0.13;91.55
22662;BME280;11497;52.222;21.246;2023-01-27T06:28:46;100943.59;;;-0.10;91.39
22662;BME280;11497;52.222;21.246;2023-01-27T06:31:17;100949.53;;;-0.14;91.67
22662;BME280;11497;52.222;21.246;2023-01-27T06:33:45;100953.81;;;-0.13;91.68
22662;BME280;11497;52.222;21.246;2023-01-27T06:36:15;100959.03;;;-0.10;91.75
22662;BME280;11497;52.222;21.246;2023-01-27T06:38:45;100953.88;;;-0.10;91.55
22662;BME280;11497;52.222;21.246;2023-01-27T06:41:13;100959.22;;;-0.01;91.59
22662;BME280;11497;52.222;21.246;2023-01-27T06:43:41;100961.81;;;0.02;91.08
22662;BME280;11497;52.222;21.246;2023-01-27T06:46:09;100960.97;;;0.03;91.01
22662;BME280;11497;52.222;21.246;2023-01-27T06:48:37;100950.16;;;0.21;91.20
22662;BME280;11497;52.222;21.246;2023-01-27T06:51:05;100957.16;;;0.28;90.45
22662;BME280;11497;52.222;21.246;2023-01-27T06:53:33;100954.66;;;0.32;89.91
22662;BME280;11497;52.222;21.246;2023-01-27T06:56:04;100959.91;;;0.39;89.49
22662;BME280;11497;52.222;21.246;2023-01-27T06:58:32;100960.69;;;0.35;89.35
22662;BME280;11497;52.222;21.246;2023-01-27T07:01:01;100956.56;;;0.46;88.99
22662;BME280;11497;52.222;21.246;2023-01-27T07:03:30;100953.16;;;0.47;88.30
22662;BME280;11497;52.222;21.246;2023-01-27T07:05:58;100966.16;;;0.54;88.34
22662;BME280;11497;52.222;21.246;2023-01-27T07:08:26;100966.13;;;0.53;88.15
22662;BME280;11497;52.222;21.246;2023-01-27T07:10:53;100962.28;;;0.79;88.04
22662;BME280;11497;52.222;21.246;2023-01-27T07:13:22;100955.44;;;0.81;87.30
22662;BME280;11497;52.222;21.246;2023-01-27T07:15:54;100952.28;;;1.00;86.91
22662;BME280;11497;52.222;21.246;2023-01-27T07:18:23;100957.63;;;1.13;86.14
22662;BME280;11497;52.222;21.246;2023-01-27T07:20:51;100964.53;;;1.17;85.84
22662;BME280;11497;52.222;21.246;2023-01-27T07:23:19;100963.22;;;1.46;85.32
22662;BME280;11497;52.222;21.246;2023-01-27T07:25:46;100964.78;;;1.35;84.92
22662;BME280;11497;52.222;21.246;2023-01-27T07:28:14;100965.25;;;1.72;84.62
22662;BME280;11497;52.222;21.246;2023-01-27T07:30:42;100962.94;;;1.97;83.50
22662;BME280;11497;52.222;21.246;2023-01-27T07:33:12;100963.72;;;1.89;82.93
22662;BME280;11497;52.222;21.246;2023-01-27T07:35:41;100975.13;;;2.09;82.28
22662;BME280;11497;52.222;21.246;2023-01-27T07:38:09;100963.03;;;2.05;81.54
22662;BME280;11497;52.222;21.246;2023-01-27T07:40:37;100968.31;;;2.14;81.06
22662;BME280;11497;52.222;21.246;2023-01-27T07:43:05;100958.84;;;2.16;80.28
22662;BME280;11497;52.222;21.246;2023-01-27T07:45:36;100967.56;;;2.30;79.11
22662;BME280;11497;52.222;21.246;2023-01-27T07:48:08;100969.13;;;2.10;78.42
22662;BME280;11497;52.222;21.246;2023-01-27T07:50:37;100965.53;;;1.96;78.63
22662;BME280;11497;52.222;21.246;2023-01-27T07:53:05;100970.03;;;2.18;78.58
22662;BME280;11497;52.222;21.246;2023-01-27T07:55:33;100968.31;;;2.19;78.78
22662;BME280;11497;52.222;21.246;2023-01-27T07:58:01;100965.81;;;2.26;79.13
22662;BME280;11497;52.222;21.246;2023-01-27T08:00:30;100972.94;;;2.52;78.55
22662;BME280;11497;52.222;21.246;2023-01-27T08:02:59;100968.09;;;2.91;77.66
22662;BME280;11497;52.222;21.246;2023-01-27T08:05:30;100964.66;;;2.92;76.45
22662;BME280;11497;52.222;21.246;2023-01-27T08:07:58;100973.34;;;3.07;76.03
22662;BME280;11497;52.222;21.246;2023-01-27T08:10:30;100971.69;;;3.16;75.29
22662;BME280;11497;52.222;21.246;2023-01-27T08:12:58;100976.03;;;3.22;74.48
22662;BME280;11497;52.222;21.246;2023-01-27T08:15:26;100977.78;;;3.26;74.38
22662;BME280;11497;52.222;21.246;2023-01-27T08:17:55;100969.13;;;3.19;74.00
22662;BME280;11497;52.222;21.246;2023-01-27T08:20:25;100971.81;;;3.39;73.43
22662;BME280;11497;52.222;21.246;2023-01-27T08:22:54;100975.34;;;3.56;72.39
22662;BME280;11497;52.222;21.246;2023-01-27T08:25:23;100979.66;;;3.59;71.18
22662;BME280;11497;52.222;21.246;2023-01-27T08:27:52;100976.19;;;3.54;70.73
22662;BME280;11497;52.222;21.246;2023-01-27T08:30:21;100974.44;;;3.47;69.66
22662;BME280;11497;52.222;21.246;2023-01-27T08:32:49;100982.13;;;3.33;70.12
22662;BME280;11497;52.222;21.246;2023-01-27T08:35:17;100977.97;;;3.62;69.80
22662;BME280;11497;52.222;21.246;2023-01-27T08:37:46;100981.44;;;3.69;69.11
22662;BME280;11497;52.222;21.246;2023-01-27T08:40:16;100978.75;;;3.48;68.13
22662;BME280;11497;52.222;21.246;2023-01-27T08:42:44;100969.19;;;3.30;67.64
22662;BME280;11497;52.222;21.246;2023-01-27T08:45:12;100989.72;;;3.03;68.29
22662;BME280;11497;52.222;21.246;2023-01-27T08:47:40;100985.41;;;3.02;68.56
22662;BME280;11497;52.222;21.246;2023-01-27T08:50:09;100981.97;;;3.07;69.28
22662;BME280;11497;52.222;21.246;2023-01-27T08:52:37;100987.13;;;3.06;68.46
22662;BME280;11497;52.222;21.246;2023-01-27T08:55:06;100981.91;;;2.96;68.41
22662;BME280;11497;52.222;21.246;2023-01-27T08:57:34;100986.34;;;3.16;68.81
22662;BME280;11497;52.222;21.246;2023-01-27T09:00:05;100986.41;;;3.28;68.68
22662;BME280;11497;52.222;21.246;2023-01-27T09:02:34;100988.16;;;3.32;68.37
22662;BME280;11497;52.222;21.246;2023-01-27T09:05:02;100983.06;;;3.41;67.78
22662;BME280;11497;52.222;21.246;2023-01-27T09:07:30;100982.22;;;3.45;67.77
22662;BME280;11497;52.222;21.246;2023-01-27T09:09:59;100995.16;;;3.50;66.86
22662;BME280;11497;52.222;21.246;2023-01-27T09:12:42;100995.75;;;3.08;67.10
22662;BME280;11497;52.222;21.246;2023-01-27T09:15:11;100995.75;;;3.02;67.27
22662;BME280;11497;52.222;21.246;2023-01-27T09:17:39;100996.59;;;3.05;67.82
22662;BME280;11497;52.222;21.246;2023-01-27T09:20:08;100992.50;;;3.33;67.59
22662;BME280;11497;52.222;21.246;2023-01-27T09:22:40;100990.66;;;3.15;67.72
22662;BME280;11497;52.222;21.246;2023-01-27T09:25:12;100994.84;;;2.96;68.08
22662;BME280;11497;52.222;21.246;2023-01-27T09:27:41;100995.75;;;3.02;68.83
22662;BME280;11497;52.222;21.246;2023-01-27T09:30:11;100993.19;;;3.08;70.13
22662;BME280;11497;52.222;21.246;2023-01-27T09:32:40;100988.91;;;3.13;69.85
22662;BME280;11497;52.222;21.246;2023-01-27T09:35:09;101002.63;;;2.99;69.44
22662;BME280;11497;52.222;21.246;2023-01-27T09:37:51;100994.13;;;3.19;69.23
22662;BME280;11497;52.222;21.246;2023-01-27T09:51:48;100985.94;;;4.90;65.18
22662;BME280;11497;52.222;21.246;2023-01-27T10:00:27;100986.69;;;5.58;62.42
22662;BME280;11497;52.222;21.246;2023-01-27T10:09:01;100985.78;;;5.63;60.66
22662;BME280;11497;52.222;21.246;2023-01-27T10:21:06;100997.84;;;5.80;58.15
22662;BME280;11497;52.222;21.246;2023-01-27T10:26:47;101003.91;;;5.73;58.37
22662;BME280;11497;52.222;21.246;2023-01-27T10:29:36;101008.22;;;5.78;58.20
22662;BME280;11497;52.222;21.246;2023-01-27T10:32:32;100999.66;;;5.59;57.76
22662;BME280;11497;52.222;21.246;2023-01-27T10:35:18;101002.28;;;5.50;57.56
22662;BME280;11497;52.222;21.246;2023-01-27T10:49:39;101024.00;;;4.73;59.30
22662;BME280;11497;52.222;21.246;2023-01-27T10:55:02;101033.44;;;4.34;59.93
22662;BME280;11497;52.222;21.246;2023-01-27T10:57:42;101021.25;;;4.01;60.44
22662;BME280;11497;52.222;21.246;2023-01-27T11:03:28;101036.63;;;3.59;61.52
22662;BME280;11497;52.222;21.246;2023-01-27T11:06:13;101030.56;;;3.55;61.50
22662;BME280;11497;52.222;21.246;2023-01-27T11:08:46;101024.53;;;3.58;62.61
22662;BME280;11497;52.222;21.246;2023-01-27T11:11:20;101015.88;;;3.54;62.60
22662;BME280;11497;52.222;21.246;2023-01-27T11:14:15;101021.88;;;3.50;62.68
22662;BME280;11497;52.222;21.246;2023-01-27T11:16:47;101022.78;;;3.52;62.49
22662;BME280;11497;52.222;21.246;2023-01-27T11:19:23;101011.47;;;3.35;63.14
22662;BME280;11497;52.222;21.246;2023-01-27T11:21:53;101013.22;;;3.36;63.30
22662;BME280;11497;52.222;21.246;2023-01-27T11:24:48;101011.44;;;3.29;63.37
22662;BME280;11497;52.222;21.246;2023-01-27T11:29:58;101004.69;;;3.58;63.38
22662;BME280;11497;52.222;21.246;2023-01-27T11:32:55;100997.75;;;3.54;63.76
22662;BME280;11497;52.222;21.246;2023-01-27T11:35:26;100997.91;;;3.85;63.84
22662;BME280;11497;52.222;21.246;2023-01-27T11:37:54;100997.75;;;3.54;63.19
22662;BME280;11497;52.222;21.246;2023-01-27T11:40:42;100999.53;;;3.61;63.57
22662;BME280;11497;52.222;21.246;2023-01-27T11:43:23;100997.91;;;3.94;63.58
22662;BME280;11497;52.222;21.246;2023-01-27T11:45:59;100986.72;;;4.04;63.19
22662;BME280;11497;52.222;21.246;2023-01-27T11:48:37;100986.78;;;4.24;62.87
22662;BME280;11497;52.222;21.246;2023-01-27T11:51:31;100985.91;;;4.19;62.27
22662;BME280;11497;52.222;21.246;2023-01-27T11:56:47;100987.38;;;3.45;61.88
22662;BME280;11497;52.222;21.246;2023-01-27T11:59:22;100996.94;;;3.63;62.42
22662;BME280;11497;52.222;21.246;2023-01-27T12:09:45;100985.78;;;3.75;61.89
22662;BME280;11497;52.222;21.246;2023-01-27T12:12:23;100988.44;;;3.97;61.58
22662;BME280;11497;52.222;21.246;2023-01-27T12:14:52;100984.13;;;3.89;61.44
22662;BME280;11497;52.222;21.246;2023-01-27T12:17:42;100977.00;;;3.39;62.03
22662;BME280;11497;52.222;21.246;2023-01-27T12:20:37;100985.72;;;3.62;62.09
22662;BME280;11497;52.222;21.246;2023-01-27T12:23:20;100988.19;;;3.37;62.55
22662;BME280;11497;52.222;21.246;2023-01-27T12:25:56;100978.75;;;3.48;62.86
22662;BME280;11497;52.222;21.246;2023-01-27T12:31:19;100986.63;;;3.72;62.97
22662;BME280;11497;52.222;21.246;2023-01-27T12:34:03;100981.22;;;3.23;63.36
22662;BME280;11497;52.222;21.246;2023-01-27T12:36:43;100978.72;;;3.40;64.07
22662;BME280;11497;52.222;21.246;2023-01-27T12:39:41;100981.34;;;3.49;64.68
22662;BME280;11497;52.222;21.246;2023-01-27T12:42:37;100985.75;;;3.70;64.79
22662;BME280;11497;52.222;21.246;2023-01-27T12:45:27;100986.56;;;3.57;64.75
22662;BME280;11497;52.222;21.246;2023-01-27T12:48:21;100993.31;;;3.29;65.04
22662;BME280;11497;52.222;21.246;2023-01-27T12:53:25;100992.28;;;2.99;66.57
22662;BME280;11497;52.222;21.246;2023-01-27T12:55:56;100995.78;;;3.11;67.42
22662;BME280;11497;52.222;21.246;2023-01-27T12:58:29;100994.88;;;3.06;67.42
22662;BME280;11497;52.222;21.246;2023-01-27T13:01:01;100994.16;;;3.25;67.60
22662;BME280;11497;52.222;21.246;2023-01-27T13:03:30;100985.41;;;3.05;67.62
22662;BME280;11497;52.222;21.246;2023-01-27T13:06:02;100989.75;;;3.13;68.45
22662;BME280;11497;52.222;21.246;2023-01-27T13:08:32;100990.63;;;3.12;68.65
22662;BME280;11497;52.222;21.246;2023-01-27T13:11:02;100987.97;;;3.00;69.54
22662;BME280;11497;52.222;21.246;2023-01-27T13:13:31;100990.31;;;2.68;70.00
22662;BME280;11497;52.222;21.246;2023-01-27T13:16:17;100995.56;;;2.80;71.02
22662;BME280;11497;52.222;21.246;2023-01-27T13:18:55;100988.44;;;2.50;72.18
22662;BME280;11497;52.222;21.246;2023-01-27T13:21:35;100990.09;;;2.42;73.22
22662;BME280;11497;52.222;21.246;2023-01-27T13:24:09;100996.06;;;2.37;74.56
22662;BME280;11497;52.222;21.246;2023-01-27T13:26:39;100998.59;;;2.33;75.32
22662;BME280;11497;52.222;21.246;2023-01-27T13:34:44;101002.22;;;2.51;78.41
22662;BME280;11497;52.222;21.246;2023-01-27T13:42:46;101002.06;;;2.36;78.22
22662;BME280;11497;52.222;21.246;2023-01-27T13:45:26;101003.69;;;2.24;78.25
22662;BME280;11497;52.222;21.246;2023-01-27T13:48:17;101010.38;;;2.06;78.80
22662;BME280;11497;52.222;21.246;2023-01-27T13:51:13;101004.38;;;2.07;79.94
22662;BME280;11497;52.222;21.246;2023-01-27T13:53:42;101012.19;;;2.14;80.33
22662;BME280;11497;52.222;21.246;2023-01-27T13:59:18;101013.72;;;1.97;80.72
22662;BME280;11497;52.222;21.246;2023-01-27T14:07:46;101015.25;;;1.83;82.29
22662;BME280;11497;52.222;21.246;2023-01-27T14:14:35;101018.31;;;1.51;83.47
22662;BME280;11497;52.222;21.246;2023-01-27T14:19:52;101010.06;;;1.80;84.45
22662;BME280;11497;52.222;21.246;2023-01-27T14:22:46;101011.91;;;1.90;84.88
22662;BME280;11497;52.222;21.246;2023-01-27T14:30:26;101023.63;;;1.63;85.50
22662;BME280;11497;52.222;21.246;2023-01-27T14:33:44;101018.56;;;1.70;85.34
22662;BME280;11497;52.222;21.246;2023-01-27T14:38:44;101030.63;;;1.72;85.55
22662;BME280;11497;52.222;21.246;2023-01-27T14:44:48;101022.00;;;1.70;85.50
22662;BME280;11497;52.222;21.246;2023-01-27T14:47:45;101023.81;;;1.79;85.58
22662;BME280;11497;52.222;21.246;2023-01-27T14:50:23;101027.16;;;1.69;85.37
22662;BME280;11497;52.222;21.246;2023-01-27T14:53:06;101021.28;;;1.82;85.49
22662;BME280;11497;52.222;21.246;2023-01-27T14:58:43;101027.81;;;1.54;85.39
22662;BME280;11497;52.222;21.246;2023-01-27T15:07:02;101023.56;;;1.57;85.20
22662;BME280;11497;52.222;21.246;2023-01-27T15:12:44;101025.41;;;1.66;85.45
22662;BME280;11497;52.222;21.246;2023-01-27T15:18:27;101024.56;;;1.69;85.20
22662;BME280;11497;52.222;21.246;2023-01-27T15:21:34;101029.63;;;1.61;85.11
22662;BME280;11497;52.222;21.246;2023-01-27T15:27:09;101028.41;;;1.36;85.68
22662;BME280;11497;52.222;21.246;2023-01-27T15:29:38;101037.84;;;1.36;85.76
22662;BME280;11497;52.222;21.246;2023-01-27T15:34:50;101035.47;;;1.48;86.44
22662;BME280;11497;52.222;21.246;2023-01-27T15:37:23;101040.72;;;1.55;86.09